createdAt,value
2018-07-01T00:01:55.018Z,13.90
2018-07-01T00:04:29.538Z,13.90
2018-07-01T00:07:03.637Z,14.00
2018-07-01T00:12:11.908Z,14.00
2018-07-01T00:14:46.084Z,14.10
2018-07-01T00:17:24.284Z,14.10
2018-07-01T00:22:32.721Z,14.20
2018-07-01T00:25:07.214Z,14.20
2018-07-01T00:27:41.552Z,14.20
2018-07-01T00:30:15.783Z,14.20
2018-07-01T00:32:50.031Z,14.20
2018-07-01T00:35:25.183Z,14.20
2018-07-01T00:37:59.384Z,14.20
2018-07-01T00:40:33.526Z,14.20
2018-07-01T00:45:41.378Z,14.10
2018-07-01T00:48:16.884Z,14.10
2018-07-01T00:50:52.029Z,14.20
2018-07-01T00:53:26.256Z,14.20
2018-07-01T00:56:00.415Z,14.20
2018-07-01T00:58:34.648Z,14.10
2018-07-01T01:01:09.813Z,14.10
2018-07-01T01:03:44.052Z,14.10
2018-07-01T01:06:18.556Z,14.10
2018-07-01T01:08:52.779Z,14.20
2018-07-01T01:11:26.944Z,14.20
2018-07-01T01:14:01.153Z,14.20
2018-07-01T01:16:35.321Z,14.20
2018-07-01T01:19:10.312Z,14.20
2018-07-01T01:21:44.459Z,14.20
2018-07-01T01:24:19.623Z,14.20
2018-07-01T01:26:53.997Z,14.20
2018-07-01T01:29:28.215Z,14.20
2018-07-01T01:32:04.063Z,14.10
2018-07-01T01:34:38.520Z,14.10
2018-07-01T01:37:14.295Z,14.10
2018-07-01T01:39:48.536Z,14.10
2018-07-01T01:42:27.692Z,14.10
2018-07-01T01:46:05.243Z,14.10
2018-07-01T01:50:51.899Z,14.10
2018-07-01T01:53:31.264Z,14.10
2018-07-01T01:56:10.452Z,14.10
2018-07-01T01:59:00.039Z,14.10
2018-07-01T02:01:38.573Z,14.10
2018-07-01T02:04:27.648Z,14.10
2018-07-01T02:07:05.700Z,14.10
2018-07-01T02:09:40.154Z,14.00
2018-07-01T02:12:15.573Z,14.10
2018-07-01T02:14:54.730Z,14.00
2018-07-01T02:17:33.448Z,14.00
2018-07-01T02:20:08.271Z,13.90
2018-07-01T02:22:46.347Z,13.80
2018-07-01T02:27:56.901Z,13.80
2018-07-01T02:30:31.088Z,13.80
2018-07-01T02:33:05.267Z,13.80
2018-07-01T02:35:39.479Z,13.80
2018-07-01T02:38:13.640Z,13.80
2018-07-01T02:40:47.829Z,13.90
2018-07-01T02:43:22.011Z,13.90
2018-07-01T02:48:29.866Z,13.90
2018-07-01T02:51:04.085Z,14.00
2018-07-01T02:53:38.312Z,13.90
2018-07-01T02:56:13.677Z,13.90
2018-07-01T02:58:47.823Z,13.90
2018-07-01T03:01:23.067Z,13.90
2018-07-01T03:03:58.248Z,13.90
2018-07-01T03:06:32.831Z,13.90
2018-07-01T03:09:10.736Z,13.90
2018-07-01T03:11:44.957Z,14.00
2018-07-01T03:14:19.144Z,14.00
2018-07-01T03:16:53.331Z,14.00
2018-07-01T03:19:27.543Z,14.00
2018-07-01T03:24:36.412Z,14.10
2018-07-01T03:27:10.633Z,14.20
2018-07-01T03:29:44.758Z,14.20
2018-07-01T03:32:19.989Z,14.30
2018-07-01T03:34:54.788Z,14.40
2018-07-01T03:37:28.998Z,14.40
2018-07-01T03:45:12.713Z,14.60
2018-07-01T03:47:47.479Z,14.70
2018-07-01T03:50:23.232Z,14.70
2018-07-01T03:52:58.376Z,14.70
2018-07-01T03:55:32.532Z,14.80
2018-07-01T03:58:07.272Z,14.80
2018-07-01T04:03:16.317Z,15.00
2018-07-01T04:10:59.482Z,15.10
2018-07-01T04:13:35.267Z,15.10
2018-07-01T04:16:11.036Z,15.10
2018-07-01T04:18:45.787Z,15.10
2018-07-01T04:21:20.490Z,15.20
2018-07-01T04:23:55.295Z,15.20
2018-07-01T04:26:30.023Z,15.40
2018-07-01T04:29:04.933Z,15.50
2018-07-01T04:31:39.629Z,15.60
2018-07-01T04:36:48.604Z,15.90
2018-07-01T04:39:24.621Z,16.00
2018-07-01T04:41:59.316Z,16.10
2018-07-01T04:44:34.049Z,16.20
2018-07-01T04:47:09.768Z,16.40
2018-07-01T04:49:44.561Z,16.60
2018-07-01T04:52:19.441Z,16.90
2018-07-01T04:54:54.267Z,17.70
2018-07-01T04:57:29.129Z,19.20
2018-07-01T05:02:39.168Z,23.00
2018-07-01T05:05:13.957Z,24.90
2018-07-01T05:07:49.684Z,25.90
2018-07-01T05:10:24.144Z,26.80
2018-07-01T05:12:58.594Z,26.80
2018-07-01T05:15:53.085Z,26.60
2018-07-01T05:18:28.003Z,25.20
2018-07-01T05:21:02.888Z,24.60
2018-07-01T05:23:37.591Z,23.80
2018-07-01T05:28:46.244Z,24.20
2018-07-01T05:31:21.745Z,25.00
2018-07-01T05:36:34.647Z,25.50
2018-07-01T05:39:13.233Z,24.90
2018-07-01T05:41:55.369Z,24.70
2018-07-01T05:44:36.081Z,24.70
2018-07-01T05:47:11.106Z,24.40
2018-07-01T05:49:45.633Z,24.20
2018-07-01T05:52:20.087Z,23.90
2018-07-01T05:54:54.612Z,24.60
2018-07-01T05:57:29.082Z,25.20
2018-07-01T06:02:38.787Z,26.20
2018-07-01T06:05:13.499Z,26.10
2018-07-01T06:07:49.353Z,25.70
2018-07-01T06:10:23.777Z,26.00
2018-07-01T06:12:58.499Z,25.90
2018-07-01T06:18:32.904Z,26.40
2018-07-01T06:24:53.760Z,25.80
2018-07-01T06:27:32.478Z,25.70
2018-07-01T06:30:29.363Z,25.80
2018-07-01T06:33:04.313Z,25.90
2018-07-01T06:40:57.685Z,26.00
2018-07-01T06:43:38.483Z,26.40
2018-07-01T06:48:59.010Z,26.80
2018-07-01T06:51:34.893Z,26.10
2018-07-01T06:54:09.592Z,25.90
2018-07-01T06:56:45.333Z,25.60
2018-07-01T06:59:20.843Z,25.50
2018-07-01T07:01:55.599Z,25.40
2018-07-01T07:04:31.396Z,25.30
2018-07-01T07:07:06.299Z,25.40
2018-07-01T07:12:16.330Z,25.50
2018-07-01T07:14:51.495Z,25.80
2018-07-01T07:20:01.500Z,26.70
2018-07-01T07:22:37.263Z,27.60
2018-07-01T07:25:12.987Z,27.60
2018-07-01T07:28:08.492Z,27.60
2018-07-01T07:30:43.242Z,27.50
2018-07-01T07:33:17.970Z,27.80
2018-07-01T07:35:53.707Z,28.50
2018-07-01T07:38:28.126Z,29.20
2018-07-01T07:41:02.544Z,28.60
2018-07-01T07:43:38.115Z,28.80
2018-07-01T07:46:12.543Z,29.30
2018-07-01T07:48:46.929Z,29.70
2018-07-01T07:51:21.330Z,29.70
2018-07-01T07:53:56.852Z,29.30
2018-07-01T07:56:37.647Z,28.30
2018-07-01T07:59:12.124Z,28.30
2018-07-01T08:04:21.679Z,27.90
2018-07-01T08:06:56.448Z,27.70
2018-07-01T08:09:30.927Z,27.90
2018-07-01T08:12:06.455Z,28.20
2018-07-01T08:14:41.068Z,28.50
2018-07-01T08:17:15.873Z,28.20
2018-07-01T08:19:51.365Z,27.90
2018-07-01T08:22:26.957Z,28.20
2018-07-01T08:25:01.424Z,28.80
2018-07-01T08:30:32.923Z,28.90
2018-07-01T08:33:24.589Z,28.90
2018-07-01T08:36:05.525Z,28.90
2018-07-01T08:38:49.056Z,28.90
2018-07-01T08:41:25.361Z,28.60
2018-07-01T08:47:27.171Z,28.40
2018-07-01T08:50:14.618Z,28.30
2018-07-01T08:52:59.404Z,28.60
2018-07-01T08:55:34.025Z,27.90
2018-07-01T08:58:09.495Z,27.60
2018-07-01T09:00:58.013Z,27.70
2018-07-01T09:03:37.303Z,27.80
2018-07-01T09:06:32.728Z,27.70
2018-07-01T09:09:09.086Z,27.90
2018-07-01T09:11:43.569Z,28.00
2018-07-01T09:14:18.064Z,28.30
2018-07-01T09:16:53.441Z,28.20
2018-07-01T09:19:36.296Z,28.00
2018-07-01T09:22:11.918Z,27.70
2018-07-01T09:24:56.756Z,27.70
2018-07-01T09:27:31.306Z,27.90
2018-07-01T09:33:12.347Z,28.20
2018-07-01T09:36:11.780Z,28.30
2018-07-01T09:41:21.495Z,28.20
2018-07-01T09:43:56.365Z,28.30
2018-07-01T09:46:32.078Z,28.20
2018-07-01T09:49:07.834Z,28.20
2018-07-01T09:51:42.356Z,28.20
2018-07-01T09:54:17.123Z,28.00
2018-07-01T09:56:52.670Z,27.90
2018-07-01T09:59:28.211Z,27.90
2018-07-01T10:02:03.799Z,27.70
2018-07-01T10:04:39.559Z,27.70
2018-07-01T10:07:14.365Z,27.30
2018-07-01T10:12:23.450Z,26.80
2018-07-01T10:14:58.230Z,26.60
2018-07-01T10:17:32.972Z,26.50
2018-07-01T10:22:42.043Z,26.20
2018-07-01T10:25:16.780Z,26.20
2018-07-01T10:27:52.594Z,26.00
2018-07-01T10:30:27.777Z,25.80
2018-07-01T10:33:02.537Z,25.50
2018-07-01T10:38:12.585Z,25.40
2018-07-01T10:40:47.463Z,25.30
2018-07-01T10:43:22.249Z,25.40
2018-07-01T10:45:57.013Z,25.40
2018-07-01T10:48:31.791Z,25.40
2018-07-01T10:51:06.701Z,25.20
2018-07-01T10:53:41.571Z,25.20
2018-07-01T10:56:16.444Z,25.20
2018-07-01T10:58:51.231Z,25.20
2018-07-01T11:01:26.033Z,25.20
2018-07-01T11:04:01.889Z,25.30
2018-07-01T11:06:38.690Z,25.10
2018-07-01T11:09:14.515Z,25.10
2018-07-01T11:11:50.332Z,25.10
2018-07-01T11:14:25.316Z,25.10
2018-07-01T11:17:00.349Z,25.00
2018-07-01T11:19:35.251Z,24.90
2018-07-01T11:22:10.037Z,24.70
2018-07-01T11:24:44.832Z,24.70
2018-07-01T11:27:19.674Z,24.60
2018-07-01T11:29:54.484Z,24.30
2018-07-01T11:32:29.324Z,24.20
2018-07-01T11:37:38.596Z,24.40
2018-07-01T11:40:13.380Z,24.40
2018-07-01T11:42:48.764Z,24.30
2018-07-01T11:45:24.816Z,24.10
2018-07-01T11:47:59.587Z,24.00
2018-07-01T11:50:34.376Z,23.90
2018-07-01T11:53:10.195Z,23.80
2018-07-01T11:55:45.077Z,23.90
2018-07-01T11:58:19.804Z,23.90
2018-07-01T12:00:54.620Z,23.80
2018-07-01T12:03:29.433Z,23.80
2018-07-01T12:08:38.557Z,23.80
2018-07-01T12:11:13.334Z,23.90
2018-07-01T12:13:48.152Z,23.90
2018-07-01T12:16:22.973Z,23.80
2018-07-01T12:18:58.719Z,23.70
2018-07-01T12:21:33.509Z,23.60
2018-07-01T12:24:08.316Z,23.60
2018-07-01T12:26:43.172Z,23.60
2018-07-01T12:29:18.090Z,23.60
2018-07-01T12:31:54.179Z,23.60
2018-07-01T12:34:29.965Z,23.50
2018-07-01T12:37:04.919Z,23.50
2018-07-01T12:39:40.723Z,23.40
2018-07-01T12:42:17.008Z,23.40
2018-07-01T12:44:51.907Z,23.40
2018-07-01T12:47:26.662Z,23.20
2018-07-01T12:50:02.530Z,23.20
2018-07-01T12:52:37.375Z,23.30
2018-07-01T12:55:29.657Z,23.20
2018-07-01T12:58:12.882Z,23.10
2018-07-01T13:00:51.668Z,22.90
2018-07-01T13:03:51.705Z,22.90
2018-07-01T13:15:45.103Z,22.70
2018-07-01T13:18:40.010Z,22.60
2018-07-01T13:21:22.084Z,22.50
2018-07-01T13:23:59.427Z,22.50
2018-07-01T13:26:47.547Z,22.70
2018-07-01T13:32:09.827Z,22.70
2018-07-01T13:34:44.648Z,22.60
2018-07-01T13:37:20.395Z,22.60
2018-07-01T13:39:55.165Z,22.70
2018-07-01T13:42:29.966Z,22.60
2018-07-01T13:45:05.415Z,22.50
2018-07-01T13:47:40.222Z,22.50
2018-07-01T13:50:15.999Z,22.50
2018-07-01T13:52:51.824Z,22.50
2018-07-01T13:55:26.665Z,22.30
2018-07-01T13:58:01.459Z,22.30
2018-07-01T14:03:11.721Z,22.40
2018-07-01T14:05:46.837Z,22.30
2018-07-01T14:08:22.715Z,22.20
2018-07-01T14:10:57.785Z,22.10
2018-07-01T14:13:32.902Z,22.20
2018-07-01T14:16:07.839Z,22.20
2018-07-01T14:18:42.886Z,22.20
2018-07-01T14:21:17.714Z,22.10
2018-07-01T14:23:52.458Z,22.10
2018-07-01T14:26:27.247Z,22.10
2018-07-01T14:29:03.073Z,22.10
2018-07-01T14:31:38.912Z,22.00
2018-07-01T14:34:46.695Z,22.10
2018-07-01T14:37:30.272Z,22.10
2018-07-01T14:40:06.725Z,22.10
2018-07-01T14:42:41.616Z,22.00
2018-07-01T14:45:20.443Z,22.00
2018-07-01T14:47:55.236Z,22.00
2018-07-01T14:50:40.730Z,21.80
2018-07-01T14:53:15.653Z,21.70
2018-07-01T14:56:04.099Z,21.70
2018-07-01T15:01:22.395Z,21.70
2018-07-01T15:04:04.914Z,21.70
2018-07-01T15:06:39.811Z,21.60
2018-07-01T15:09:14.903Z,21.50
2018-07-01T15:11:49.713Z,21.50
2018-07-01T15:14:30.872Z,21.60
2018-07-01T15:17:05.692Z,21.50
2018-07-01T15:19:42.538Z,21.60
2018-07-01T15:22:18.358Z,21.60
2018-07-01T15:27:29.576Z,21.60
2018-07-01T15:30:04.458Z,21.50
2018-07-01T15:32:39.190Z,21.50
2018-07-01T15:35:14.570Z,21.50
2018-07-01T15:37:49.496Z,21.50
2018-07-01T15:40:24.263Z,21.30
2018-07-01T15:43:00.179Z,21.30
2018-07-01T15:45:36.036Z,21.30
2018-07-01T15:48:10.811Z,21.20
2018-07-01T15:50:46.202Z,21.20
2018-07-01T15:53:22.003Z,21.20
2018-07-01T15:55:57.023Z,21.20
2018-07-01T15:58:31.983Z,21.10
2018-07-01T16:01:12.726Z,21.10
2018-07-01T16:03:47.591Z,21.10
2018-07-01T16:08:56.763Z,21.20
2018-07-01T16:11:56.453Z,21.10
2018-07-01T16:14:31.873Z,21.10
2018-07-01T16:17:12.513Z,21.20
2018-07-01T16:19:47.340Z,21.20
2018-07-01T16:22:23.429Z,21.10
2018-07-01T16:26:00.976Z,21.10
2018-07-01T16:28:41.035Z,21.10
2018-07-01T16:31:15.812Z,21.00
2018-07-01T16:36:25.197Z,21.00
2018-07-01T16:39:01.983Z,21.00
2018-07-01T16:41:36.792Z,20.80
2018-07-01T16:44:31.606Z,20.80
2018-07-01T16:47:06.753Z,20.70
2018-07-01T16:49:42.909Z,20.70
2018-07-01T16:58:24.653Z,20.50
2018-07-01T17:01:00.055Z,20.40
2018-07-01T17:03:34.878Z,20.30
2018-07-01T17:06:09.698Z,20.30
2018-07-01T17:08:44.486Z,20.20
2018-07-01T17:11:19.384Z,20.20
2018-07-01T17:13:54.267Z,20.20
2018-07-01T17:19:07.922Z,20.10
2018-07-01T17:21:44.881Z,20.10
2018-07-01T17:24:20.821Z,20.00
2018-07-01T17:26:55.687Z,19.90
2018-07-01T17:32:10.228Z,19.80
2018-07-01T17:34:46.169Z,19.80
2018-07-01T17:37:21.194Z,19.70
2018-07-01T17:39:55.943Z,19.70
2018-07-01T17:42:30.738Z,19.70
2018-07-01T17:45:05.510Z,19.80
2018-07-01T17:47:40.224Z,19.80
2018-07-01T17:50:14.990Z,19.70
2018-07-01T17:52:50.804Z,19.70
2018-07-01T17:55:25.592Z,19.70
2018-07-01T17:58:00.392Z,19.60
2018-07-01T18:00:35.177Z,19.70
2018-07-01T18:03:09.944Z,19.50
2018-07-01T18:08:19.045Z,19.30
2018-07-01T18:10:54.849Z,19.10
2018-07-01T18:13:30.635Z,19.00
2018-07-01T18:16:05.977Z,18.80
2018-07-01T18:18:40.895Z,18.80
2018-07-01T18:21:20.813Z,18.70
2018-07-01T18:26:46.067Z,18.60
2018-07-01T18:29:28.427Z,18.50
2018-07-01T18:32:14.783Z,18.40
2018-07-01T18:35:00.482Z,18.30
2018-07-01T18:37:37.590Z,18.30
2018-07-01T18:40:12.802Z,18.20
2018-07-01T18:42:48.442Z,18.20
2018-07-01T18:45:30.302Z,18.10
2018-07-01T18:48:17.236Z,18.00
2018-07-01T18:51:07.107Z,18.00
2018-07-01T18:53:51.750Z,17.90
2018-07-01T18:56:39.205Z,17.90
2018-07-01T18:59:45.892Z,17.80
2018-07-01T19:02:21.585Z,17.80
2018-07-01T19:04:58.136Z,17.60
2018-07-01T19:07:34.431Z,17.50
2018-07-01T19:10:21.826Z,17.40
2018-07-01T19:13:23.854Z,17.20
2018-07-01T19:16:01.185Z,17.00
2018-07-01T19:18:35.946Z,17.00
2018-07-01T19:21:10.869Z,16.80
2018-07-01T19:23:50.366Z,16.80
2018-07-01T19:26:28.861Z,16.70
2018-07-01T19:29:06.475Z,16.60
2018-07-01T19:34:15.514Z,16.30
2018-07-01T19:36:50.293Z,16.20
2018-07-01T19:39:25.099Z,16.10
2018-07-01T19:41:59.888Z,16.00
2018-07-01T19:44:35.674Z,15.90
2018-07-01T19:47:10.451Z,15.80
2018-07-01T19:49:45.453Z,15.70
2018-07-01T19:52:21.248Z,15.50
2018-07-01T19:57:30.405Z,15.40
2018-07-01T20:00:05.702Z,15.30
2018-07-01T20:02:41.791Z,15.10
2018-07-01T20:05:16.652Z,15.00
2018-07-01T20:07:51.376Z,14.80
2018-07-01T20:10:26.145Z,14.70
2018-07-01T20:13:00.903Z,14.60
2018-07-01T20:21:35.686Z,14.30
2018-07-01T20:24:10.479Z,14.10
2018-07-01T20:26:48.200Z,14.10
2018-07-01T20:31:57.678Z,13.80
2018-07-01T20:34:35.956Z,13.60
2018-07-01T20:37:10.631Z,13.50
2018-07-01T20:39:44.901Z,13.40
2018-07-01T20:42:19.358Z,13.40
2018-07-01T20:47:29.255Z,13.20
2018-07-01T20:50:03.497Z,13.20
2018-07-01T20:52:37.726Z,13.10
2018-07-01T20:55:12.015Z,13.10
2018-07-01T20:57:46.236Z,13.10
2018-07-01T21:00:27.029Z,13.10
2018-07-01T21:08:33.321Z,12.70
2018-07-01T21:11:08.322Z,12.60
2018-07-01T21:13:42.634Z,12.50
2018-07-01T21:16:17.450Z,12.30
2018-07-01T21:18:51.633Z,12.20
2018-07-01T21:21:26.893Z,12.20
2018-07-01T21:24:01.142Z,12.10
2018-07-01T21:26:35.331Z,12.10
2018-07-01T21:29:10.660Z,12.10
2018-07-01T21:31:44.887Z,12.10
2018-07-01T21:34:20.111Z,12.10
2018-07-01T21:36:54.522Z,12.00
2018-07-01T21:39:29.836Z,12.00
2018-07-01T21:42:04.268Z,11.90
2018-07-01T21:44:38.512Z,11.90
2018-07-01T21:47:12.902Z,11.80
2018-07-01T21:49:47.392Z,11.80
2018-07-01T21:52:21.683Z,11.70
2018-07-01T21:54:56.088Z,11.70
2018-07-01T21:57:30.554Z,11.60
2018-07-01T22:00:26.938Z,11.60
2018-07-01T22:03:04.682Z,11.50
2018-07-01T22:05:39.011Z,11.50
2018-07-01T22:08:14.443Z,11.40
2018-07-01T22:10:59.647Z,11.40
2018-07-01T22:14:42.586Z,11.40
2018-07-01T22:17:16.857Z,11.30
2018-07-01T22:19:51.252Z,11.20
2018-07-01T22:22:25.456Z,11.20
2018-07-01T22:25:00.748Z,11.20
2018-07-01T22:27:36.159Z,11.10
2018-07-01T22:30:11.646Z,11.00
2018-07-01T22:32:47.007Z,10.90
2018-07-01T22:35:21.396Z,10.80
2018-07-01T22:37:55.564Z,10.80
2018-07-01T22:40:29.955Z,10.70
2018-07-01T22:43:04.304Z,10.70
2018-07-01T22:45:38.687Z,10.60
2018-07-01T22:48:13.074Z,10.50
2018-07-01T22:53:22.368Z,10.40
2018-07-01T22:55:56.680Z,10.30
2018-07-01T22:58:30.956Z,10.30
2018-07-01T23:03:40.074Z,10.30
2018-07-01T23:06:15.489Z,10.30
2018-07-01T23:08:49.834Z,10.30
2018-07-01T23:11:24.251Z,10.20
2018-07-01T23:13:58.606Z,10.20
2018-07-01T23:16:33.834Z,10.10
2018-07-01T23:24:21.464Z,10.10
2018-07-01T23:27:00.287Z,10.00
2018-07-01T23:29:41.261Z,10.00
2018-07-01T23:34:58.259Z,10.10
2018-07-01T23:37:37.818Z,10.00
2018-07-01T23:40:13.347Z,10.00
2018-07-01T23:42:50.075Z,10.00
2018-07-01T23:48:03.330Z,9.90
2018-07-01T23:53:24.981Z,9.80
2018-07-01T23:56:04.535Z,9.70
2018-07-01T23:58:41.435Z,9.70
